Time,TemperatureF,DewpointF,PressureIn,WindDirection,WindDirectionDegrees,WindSpeedMPH,WindSpeedGustMPH,Humidity,HourlyPrecipIn,Conditions,Clouds,dailyrainin,SoftwareType,DateUTC
2013-09-21 00:00:00,76.7,73.5,29.88,NE,34,0.0,0.0,90,0.00,,OVC,0.02,WeatherDisplay:10.37,2013-09-21 04:00:00,
2013-09-21 00:01:00,76.7,73.5,29.88,NE,34,0.0,0.0,90,0.00,RA,OVC,0.00,WeatherDisplay:10.37,2013-09-21 04:01:00,
2013-09-21 00:02:00,76.7,73.5,29.88,NE,34,0.0,0.0,90,0.00,RA,OVC,0.00,WeatherDisplay:10.37,2013-09-21 04:02:00,
2013-09-21 00:07:00,76.8,73.6,29.88,NNE,32,0.0,0.0,90,0.00,RA,OVC,0.00,WeatherDisplay:10.37,2013-09-21 04:07:00,
2013-09-21 00:12:00,76.7,73.2,29.88,NNE,24,0.0,0.0,89,0.00,,OVC,0.00,WeatherDisplay:10.37,2013-09-21 04:12:00,
2013-09-21 00:17:00,76.5,73.0,29.88,North,5,0.0,0.0,89,0.00,,OVC,0.00,WeatherDisplay:10.37,2013-09-21 04:17:00,
2013-09-21 00:22:00,76.3,72.8,29.88,North,5,0.0,0.0,89,0.00,,OVC,0.00,WeatherDisplay:10.37,2013-09-21 04:22:00,
2013-09-21 00:27:00,76.3,72.8,29.88,North,5,0.0,0.0,89,0.00,,OVC,0.00,WeatherDisplay:10.37,2013-09-21 04:27:00,
2013-09-21 00:32:00,76.3,72.5,29.88,North,5,0.0,0.0,88,0.00,,OVC,0.00,WeatherDisplay:10.37,2013-09-21 04:32:00,
2013-09-21 00:37:00,76.1,72.6,29.88,North,5,0.0,0.0,89,0.00,,OVC,0.00,WeatherDisplay:10.37,2013-09-21 04:37:00,
2013-09-21 00:42:00,76.1,72.6,29.88,North,5,0.0,0.0,89,0.00,,OVC,0.00,WeatherDisplay:10.37,2013-09-21 04:42:00,
2013-09-21 00:47:00,76.0,72.5,29.88,North,5,0.0,0.0,89,0.00,,OVC,0.00,WeatherDisplay:10.37,2013-09-21 04:47:00,
2013-09-21 00:52:00,76.0,72.5,29.88,North,5,0.0,0.0,89,0.00,,OVC,0.00,WeatherDisplay:10.37,2013-09-21 04:52:00,
2013-09-21 00:57:00,75.8,72.3,29.88,North,5,0.0,0.0,89,0.00,,OVC,0.00,WeatherDisplay:10.37,2013-09-21 04:57:00,
2013-09-21 01:02:00,75.8,72.3,29.87,North,5,0.0,0.0,89,0.00,,OVC,0.00,WeatherDisplay:10.37,2013-09-21 05:02:00,
2013-09-21 01:07:00,75.6,72.1,29.87,North,5,0.0,0.0,89,0.00,,OVC,0.00,WeatherDisplay:10.37,2013-09-21 05:07:00,
2013-09-21 01:12:00,75.4,71.9,29.87,North,5,0.0,0.0,89,0.00,,OVC,0.00,WeatherDisplay:10.37,2013-09-21 05:12:00,
2013-09-21 01:17:00,75.4,72.3,29.87,North,5,0.0,0.0,90,0.00,,OVC,0.00,WeatherDisplay:10.37,2013-09-21 05:17:00,
2013-09-21 01:22:00,75.4,72.3,29.87,North,5,0.0,0.0,90,0.00,,OVC,0.00,WeatherDisplay:10.37,2013-09-21 05:22:00,
2013-09-21 01:27:00,75.4,72.3,29.87,North,5,0.0,0.0,90,0.00,,OVC,0.00,WeatherDisplay:10.37,2013-09-21 05:27:00,
2013-09-21 01:32:00,75.4,72.3,29.87,North,5,0.0,0.0,90,0.00,,OVC,0.00,WeatherDisplay:10.37,2013-09-21 05:32:00,
2013-09-21 01:37:00,75.4,72.3,29.87,North,5,0.0,0.0,90,0.00,,OVC,0.00,WeatherDisplay:10.37,2013-09-21 05:37:00,
2013-09-21 01:42:00,75.3,72.2,29.87,North,5,0.0,0.0,90,0.00,,OVC,0.00,WeatherDisplay:10.37,2013-09-21 05:42:00,
2013-09-21 01:47:00,75.3,72.2,29.87,North,5,0.0,0.0,90,0.00,,OVC,0.00,WeatherDisplay:10.37,2013-09-21 05:47:00,
2013-09-21 01:52:00,75.4,72.3,29.87,North,5,0.0,0.0,90,0.00,,OVC,0.00,WeatherDisplay:10.37,2013-09-21 05:52:00,
2013-09-21 01:57:00,75.3,72.2,29.87,North,5,0.0,0.0,90,0.00,,OVC,0.00,WeatherDisplay:10.37,2013-09-21 05:57:00,
2013-09-21 02:02:00,75.3,72.2,29.85,North,5,0.0,0.0,90,0.00,,OVC,0.00,WeatherDisplay:10.37,2013-09-21 06:02:00,
2013-09-21 02:07:00,75.1,72.0,29.85,North,5,0.0,0.0,90,0.00,,OVC,0.00,WeatherDisplay:10.37,2013-09-21 06:07:00,
2013-09-21 02:12:00,75.3,72.5,29.85,North,5,0.0,0.0,91,0.00,,OVC,0.00,WeatherDisplay:10.37,2013-09-21 06:12:00,
2013-09-21 02:17:00,75.3,72.2,29.86,North,5,0.0,0.0,90,0.00,,OVC,0.00,WeatherDisplay:10.37,2013-09-21 06:17:00,
2013-09-21 02:22:00,75.1,72.0,29.86,North,5,0.0,0.0,90,0.00,,OVC,0.00,WeatherDisplay:10.37,2013-09-21 06:22:00,
2013-09-21 02:27:00,75.1,72.3,29.86,North,5,0.0,0.0,91,0.00,,OVC,0.00,WeatherDisplay:10.37,2013-09-21 06:27:00,
2013-09-21 02:33:00,75.1,72.3,29.85,North,5,0.0,0.0,91,0.00,,OVC,0.00,WeatherDisplay:10.37,2013-09-21 06:33:00,
2013-09-21 02:38:00,75.1,72.3,29.85,North,5,0.0,0.0,91,0.00,,OVC,0.00,WeatherDisplay:10.37,2013-09-21 06:38:00,
2013-09-21 02:43:00,75.1,72.3,29.85,North,5,0.0,0.0,91,0.00,,OVC,0.00,WeatherDisplay:10.37,2013-09-21 06:43:00,
2013-09-21 02:48:00,74.9,72.1,29.85,North,5,0.0,0.0,91,0.00,,OVC,0.00,WeatherDisplay:10.37,2013-09-21 06:48:00,
2013-09-21 02:53:00,74.9,72.1,29.85,North,5,0.0,0.0,91,0.00,,OVC,0.00,WeatherDisplay:10.37,2013-09-21 06:53:00,
2013-09-21 02:58:00,74.9,72.1,29.85,North,5,0.0,0.0,91,0.00,,OVC,0.00,WeatherDisplay:10.37,2013-09-21 06:58:00,
2013-09-21 03:03:00,74.7,71.9,29.85,North,5,0.0,0.0,91,0.00,,OVC,0.00,WeatherDisplay:10.37,2013-09-21 07:03:00,
2013-09-21 03:08:00,74.6,71.8,29.85,North,5,0.0,0.0,91,0.00,,OVC,0.00,WeatherDisplay:10.37,2013-09-21 07:08:00,
2013-09-21 03:13:00,74.6,71.8,29.85,North,5,0.0,0.0,91,0.00,,OVC,0.00,WeatherDisplay:10.37,2013-09-21 07:13:00,
2013-09-21 03:18:00,74.6,71.8,29.84,North,5,0.0,0.0,91,0.00,,OVC,0.00,WeatherDisplay:10.37,2013-09-21 07:18:00,
2013-09-21 03:23:00,74.4,71.6,29.84,North,5,0.0,0.0,91,0.00,,OVC,0.00,WeatherDisplay:10.37,2013-09-21 07:23:00,
2013-09-21 03:28:00,74.2,71.4,29.84,North,5,0.0,0.0,91,0.00,,OVC,0.00,WeatherDisplay:10.37,2013-09-21 07:28:00,
2013-09-21 03:33:00,74.0,71.2,29.84,North,5,0.0,0.0,91,0.00,,OVC,0.00,WeatherDisplay:10.37,2013-09-21 07:33:00,
2013-09-21 03:38:00,73.9,71.1,29.84,North,5,0.0,0.0,91,0.00,,OVC,0.00,WeatherDisplay:10.37,2013-09-21 07:38:00,
2013-09-21 03:43:00,73.9,71.1,29.84,North,5,0.0,0.0,91,0.00,,OVC,0.00,WeatherDisplay:10.37,2013-09-21 07:43:00,
2013-09-21 03:48:00,73.9,71.1,29.84,North,5,0.0,0.0,91,0.00,,OVC,0.00,WeatherDisplay:10.37,2013-09-21 07:48:00,
2013-09-21 03:53:00,73.7,70.9,29.84,North,5,0.0,0.0,91,0.00,,OVC,0.00,WeatherDisplay:10.37,2013-09-21 07:53:00,
2013-09-21 03:58:00,73.9,71.1,29.84,North,5,0.0,0.0,91,0.00,,OVC,0.00,WeatherDisplay:10.37,2013-09-21 07:58:00,
2013-09-21 04:03:00,73.7,70.9,29.83,North,5,0.0,0.0,91,0.00,,OVC,0.00,WeatherDisplay:10.37,2013-09-21 08:03:00,
2013-09-21 04:08:00,73.5,70.7,29.83,North,5,0.0,0.0,91,0.00,,OVC,0.00,WeatherDisplay:10.37,2013-09-21 08:08:00,
2013-09-21 04:13:00,73.5,70.7,29.83,North,5,0.0,0.0,91,0.00,,OVC,0.00,WeatherDisplay:10.37,2013-09-21 08:13:00,
2013-09-21 04:18:00,73.3,70.5,29.82,North,5,0.0,0.0,91,0.00,,OVC,0.00,WeatherDisplay:10.37,2013-09-21 08:18:00,
2013-09-21 04:23:00,73.3,70.5,29.82,North,5,0.0,0.0,91,0.00,,OVC,0.00,WeatherDisplay:10.37,2013-09-21 08:23:00,
2013-09-21 04:28:00,73.2,70.7,29.82,North,5,0.0,0.0,92,0.00,,OVC,0.00,WeatherDisplay:10.37,2013-09-21 08:28:00,
2013-09-21 04:33:00,73.2,70.7,29.82,North,5,0.0,0.0,92,0.00,,OVC,0.00,WeatherDisplay:10.37,2013-09-21 08:33:00,
2013-09-21 04:38:00,73.0,70.5,29.82,North,5,0.0,0.0,92,0.00,,OVC,0.00,WeatherDisplay:10.37,2013-09-21 08:38:00,
2013-09-21 04:43:00,73.0,70.5,29.82,North,5,0.0,0.0,92,0.00,,OVC,0.00,WeatherDisplay:10.37,2013-09-21 08:43:00,
2013-09-21 04:48:00,73.0,70.5,29.82,North,5,0.0,0.0,92,0.00,,OVC,0.00,WeatherDisplay:10.37,2013-09-21 08:48:00,
2013-09-21 04:53:00,73.0,70.5,29.82,North,5,0.0,0.0,92,0.00,,OVC,0.00,WeatherDisplay:10.37,2013-09-21 08:53:00,
2013-09-21 04:58:00,73.0,70.5,29.82,North,5,0.0,0.0,92,0.00,,OVC,0.00,WeatherDisplay:10.37,2013-09-21 08:58:00,
2013-09-21 05:03:00,73.0,70.5,29.82,North,5,0.0,0.0,92,0.00,,OVC,0.00,WeatherDisplay:10.37,2013-09-21 09:03:00,
2013-09-21 05:08:00,73.0,70.5,29.82,North,5,0.0,0.0,92,0.00,,OVC,0.00,WeatherDisplay:10.37,2013-09-21 09:08:00,
2013-09-21 05:13:00,73.0,70.5,29.82,North,5,0.0,0.0,92,0.00,,OVC,0.00,WeatherDisplay:10.37,2013-09-21 09:13:00,
2013-09-21 05:18:00,72.8,70.3,29.82,North,5,0.0,0.0,92,0.00,,OVC,0.00,WeatherDisplay:10.37,2013-09-21 09:18:00,
2013-09-21 05:23:00,72.8,70.3,29.82,North,5,0.0,0.0,92,0.00,,OVC,0.00,WeatherDisplay:10.37,2013-09-21 09:23:00,
2013-09-21 05:28:00,72.8,70.3,29.82,North,5,0.0,0.0,92,0.00,,OVC,0.00,WeatherDisplay:10.37,2013-09-21 09:28:00,
2013-09-21 05:33:00,72.8,70.3,29.82,North,5,0.0,0.0,92,0.00,,OVC,0.00,WeatherDisplay:10.37,2013-09-21 09:33:00,
2013-09-21 05:38:00,72.7,70.2,29.82,North,5,0.0,0.0,92,0.00,,OVC,0.01,WeatherDisplay:10.37,2013-09-21 09:38:00,
2013-09-21 05:43:00,72.7,70.2,29.82,North,5,0.0,0.0,92,0.01,RA,OVC,0.01,WeatherDisplay:10.37,2013-09-21 09:43:00,
2013-09-21 05:48:00,72.7,70.2,29.82,North,5,0.0,0.0,92,0.01,RA,OVC,0.01,WeatherDisplay:10.37,2013-09-21 09:48:00,
2013-09-21 05:53:00,72.7,70.6,29.82,North,5,0.0,0.0,93,0.01,,OVC,0.01,WeatherDisplay:10.37,2013-09-21 09:53:00,
2013-09-21 05:58:00,72.7,70.2,29.82,North,5,0.0,0.0,92,0.01,,OVC,0.01,WeatherDisplay:10.37,2013-09-21 09:58:00,
2013-09-21 06:03:00,72.7,70.2,29.82,North,5,0.0,0.0,92,0.01,,OVC,0.01,WeatherDisplay:10.37,2013-09-21 10:03:00,
2013-09-21 06:08:00,72.5,70.0,29.82,North,5,0.0,0.0,92,0.01,,OVC,0.01,WeatherDisplay:10.37,2013-09-21 10:08:00,
2013-09-21 06:13:00,72.5,70.0,29.82,North,5,0.0,0.0,92,0.01,,OVC,0.01,WeatherDisplay:10.37,2013-09-21 10:13:00,
2013-09-21 06:18:00,72.5,70.4,29.82,North,5,0.0,0.0,93,0.01,,OVC,0.01,WeatherDisplay:10.37,2013-09-21 10:18:00,
2013-09-21 06:23:00,72.5,70.4,29.82,North,5,0.0,0.0,93,0.01,,OVC,0.01,WeatherDisplay:10.37,2013-09-21 10:23:00,
2013-09-21 06:29:00,72.3,70.2,29.82,North,5,0.0,0.0,93,0.01,,OVC,0.01,WeatherDisplay:10.37,2013-09-21 10:29:00,
2013-09-21 06:34:00,72.5,70.4,29.82,North,5,0.0,0.0,93,0.01,,OVC,0.01,WeatherDisplay:10.37,2013-09-21 10:34:00,
2013-09-21 06:39:00,72.3,70.2,29.82,North,5,0.0,0.0,93,0.01,,OVC,0.01,WeatherDisplay:10.37,2013-09-21 10:39:00,
2013-09-21 06:44:00,72.3,70.2,29.82,North,5,0.0,0.0,93,0.00,,OVC,0.01,WeatherDisplay:10.37,2013-09-21 10:44:00,
2013-09-21 06:49:00,72.1,70.0,29.82,North,5,0.0,0.0,93,0.00,,OVC,0.01,WeatherDisplay:10.37,2013-09-21 10:49:00,
2013-09-21 06:54:00,72.1,70.0,29.82,North,5,0.0,0.0,93,0.00,,OVC,0.01,WeatherDisplay:10.37,2013-09-21 10:54:00,
2013-09-21 06:59:00,72.1,70.0,29.82,North,5,0.0,0.0,93,0.00,,OVC,0.01,WeatherDisplay:10.37,2013-09-21 10:59:00,
2013-09-21 07:04:00,72.1,70.0,29.81,North,5,0.0,0.0,93,0.00,,OVC,0.01,WeatherDisplay:10.37,2013-09-21 11:04:00,
2013-09-21 07:09:00,72.1,70.0,29.81,North,5,0.0,0.0,93,0.00,,OVC,0.01,WeatherDisplay:10.37,2013-09-21 11:09:00,
2013-09-21 07:14:00,72.3,70.2,29.81,North,5,0.0,0.0,93,0.00,,OVC,0.01,WeatherDisplay:10.37,2013-09-21 11:14:00,
2013-09-21 07:19:00,72.3,70.2,29.81,North,5,0.0,0.0,93,0.00,,OVC,0.01,WeatherDisplay:10.37,2013-09-21 11:19:00,
2013-09-21 07:24:00,72.1,70.0,29.81,North,5,0.0,0.0,93,0.00,,OVC,0.01,WeatherDisplay:10.37,2013-09-21 11:24:00,
2013-09-21 07:29:00,72.1,70.0,29.81,North,5,0.0,0.0,93,0.00,,OVC,0.01,WeatherDisplay:10.37,2013-09-21 11:29:00,
2013-09-21 07:34:00,72.3,70.2,29.82,North,5,0.0,0.0,93,0.00,,OVC,0.01,WeatherDisplay:10.37,2013-09-21 11:34:00,
2013-09-21 07:39:00,72.5,70.4,29.82,North,5,0.0,0.0,93,0.00,,OVC,0.01,WeatherDisplay:10.37,2013-09-21 11:39:00,
2013-09-21 07:44:00,72.5,70.4,29.82,North,5,0.0,0.0,93,0.00,,OVC,0.01,WeatherDisplay:10.37,2013-09-21 11:44:00,
2013-09-21 07:49:00,72.5,70.4,29.82,North,5,0.0,0.0,93,0.00,,OVC,0.01,WeatherDisplay:10.37,2013-09-21 11:49:00,
2013-09-21 07:54:00,72.7,70.9,29.82,North,5,0.0,0.0,94,0.00,,OVC,0.01,WeatherDisplay:10.37,2013-09-21 11:54:00,
2013-09-21 07:59:00,72.8,70.7,29.82,North,5,0.0,0.0,93,0.00,,OVC,0.01,WeatherDisplay:10.37,2013-09-21 11:59:00,
2013-09-21 08:04:00,73.2,71.4,29.82,North,5,0.0,0.0,94,0.00,,OVC,0.01,WeatherDisplay:10.37,2013-09-21 12:04:00,
2013-09-21 08:09:00,73.3,71.2,29.82,North,5,0.0,0.0,93,0.00,,OVC,0.01,WeatherDisplay:10.37,2013-09-21 12:09:00,
2013-09-21 08:14:00,73.5,71.4,29.82,North,5,0.0,0.0,93,0.00,,OVC,0.01,WeatherDisplay:10.37,2013-09-21 12:14:00,
2013-09-21 08:19:00,73.9,71.7,29.83,North,5,0.0,0.0,93,0.00,,OVC,0.01,WeatherDisplay:10.37,2013-09-21 12:19:00,
2013-09-21 08:24:00,74.4,71.9,29.83,North,5,0.0,0.0,92,0.00,,OVC,0.01,WeatherDisplay:10.37,2013-09-21 12:24:00,
2013-09-21 08:29:00,74.9,72.4,29.83,North,5,0.0,0.0,92,0.00,,OVC,0.01,WeatherDisplay:10.37,2013-09-21 12:29:00,
2013-09-21 08:34:00,75.3,72.5,29.83,North,5,0.0,0.0,91,0.00,,OVC,0.01,WeatherDisplay:10.37,2013-09-21 12:34:00,
2013-09-21 08:39:00,75.8,72.3,29.83,North,5,0.0,0.0,89,0.00,,OVC,0.01,WeatherDisplay:10.37,2013-09-21 12:39:00,
2013-09-21 08:44:00,76.5,72.7,29.83,North,5,0.0,0.0,88,0.00,,OVC,0.01,WeatherDisplay:10.37,2013-09-21 12:44:00,
2013-09-21 08:49:00,76.8,72.3,29.84,North,5,0.0,0.0,86,0.00,,OVC,0.01,WeatherDisplay:10.37,2013-09-21 12:49:00,
2013-09-21 08:54:00,77.6,72.7,29.84,North,5,0.0,0.0,85,0.00,,OVC,0.01,WeatherDisplay:10.37,2013-09-21 12:54:00,
2013-09-21 08:59:00,78.1,72.5,29.84,North,5,0.0,0.0,83,0.00,,OVC,0.01,WeatherDisplay:10.37,2013-09-21 12:59:00,
2013-09-21 09:04:00,78.6,72.6,29.84,North,5,0.0,0.0,82,0.00,,OVC,0.01,WeatherDisplay:10.37,2013-09-21 13:04:00,
2013-09-21 09:09:00,79.2,72.9,29.84,North,5,0.0,0.0,81,0.00,,OVC,0.01,WeatherDisplay:10.37,2013-09-21 13:09:00,
2013-09-21 09:14:00,79.6,72.9,29.84,North,5,0.0,0.0,80,0.00,,OVC,0.01,WeatherDisplay:10.37,2013-09-21 13:14:00,
2013-09-21 09:19:00,80.1,72.6,29.84,North,5,0.0,0.0,78,0.00,,OVC,0.01,WeatherDisplay:10.37,2013-09-21 13:19:00,
2013-09-21 09:24:00,80.5,73.0,29.84,North,9,0.0,0.0,78,0.00,,OVC,0.01,WeatherDisplay:10.37,2013-09-21 13:24:00,
2013-09-21 09:29:00,80.7,72.4,29.84,NNE,28,0.0,0.0,76,0.00,,OVC,0.01,WeatherDisplay:10.37,2013-09-21 13:29:00,
2013-09-21 09:34:00,81.1,72.4,29.84,NNE,28,0.0,0.0,75,0.00,,OVC,0.01,WeatherDisplay:10.37,2013-09-21 13:34:00,
2013-09-21 09:39:00,81.2,72.5,29.84,NNE,30,0.0,0.0,75,0.00,,OVC,0.01,WeatherDisplay:10.37,2013-09-21 13:39:00,
2013-09-21 09:45:00,81.2,72.1,29.84,NNE,33,0.0,0.0,74,0.00,,OVC,0.01,WeatherDisplay:10.37,2013-09-21 13:45:00,
2013-09-21 09:49:00,81.1,72.0,29.84,NE,36,0.0,0.0,74,0.00,,OVC,0.01,WeatherDisplay:10.37,2013-09-21 13:49:00,
2013-09-21 09:55:00,81.2,72.1,29.84,ENE,59,0.0,0.0,74,0.00,,OVC,0.01,WeatherDisplay:10.37,2013-09-21 13:55:00,
2013-09-21 10:00:00,81.8,72.3,29.85,NE,50,8.1,8.1,73,0.00,,OVC,0.01,WeatherDisplay:10.37,2013-09-21 14:00:00,
2013-09-21 10:05:00,82.4,72.0,29.85,NE,35,16.1,16.1,71,0.00,,OVC,0.01,WeatherDisplay:10.37,2013-09-21 14:05:00,
2013-09-21 10:10:00,82.8,71.6,29.85,ENE,78,0.0,0.0,69,0.00,,OVC,0.01,WeatherDisplay:10.37,2013-09-21 14:10:00,
2013-09-21 10:15:00,83.4,72.2,29.85,SE,126,0.0,0.0,69,0.00,,OVC,0.01,WeatherDisplay:10.37,2013-09-21 14:15:00,
2013-09-21 10:20:00,83.6,71.9,29.85,SE,125,0.0,0.0,68,0.00,,OVC,0.01,WeatherDisplay:10.37,2013-09-21 14:20:00,
2013-09-21 10:25:00,83.4,72.2,29.85,ENE,73,0.0,0.0,69,0.00,,OVC,0.01,WeatherDisplay:10.37,2013-09-21 14:25:00,
2013-09-21 10:30:00,83.0,70.9,29.85,ENE,74,0.0,0.0,67,0.00,,OVC,0.01,WeatherDisplay:10.37,2013-09-21 14:30:00,
2013-09-21 10:35:00,83.2,71.1,29.85,ENE,65,0.0,0.0,67,0.00,,OVC,0.01,WeatherDisplay:10.37,2013-09-21 14:35:00,
2013-09-21 10:40:00,83.8,72.1,29.85,NE,55,11.5,11.5,68,0.00,,OVC,0.01,WeatherDisplay:10.37,2013-09-21 14:40:00,
2013-09-21 10:45:00,84.5,72.3,29.85,NE,53,1.2,0.0,67,0.00,,OVC,0.01,WeatherDisplay:10.37,2013-09-21 14:45:00,
2013-09-21 10:50:00,85.1,72.5,29.85,NE,37,0.0,0.0,66,0.00,,OVC,0.01,WeatherDisplay:10.37,2013-09-21 14:50:00,
2013-09-21 10:55:00,85.5,72.8,29.85,SE,144,0.0,0.0,66,0.00,,OVC,0.01,WeatherDisplay:10.37,2013-09-21 14:55:00,
2013-09-21 11:00:00,85.9,72.8,29.85,East,86,0.0,0.0,65,0.00,,OVC,0.01,WeatherDisplay:10.37,2013-09-21 15:00:00,
2013-09-21 11:05:00,86.1,72.5,29.85,SE,145,0.0,0.0,64,0.00,,OVC,0.01,WeatherDisplay:10.37,2013-09-21 15:05:00,
2013-09-21 11:10:00,86.3,72.7,29.85,ENE,76,0.0,0.0,64,0.00,,OVC,0.01,WeatherDisplay:10.37,2013-09-21 15:10:00,
2013-09-21 11:15:00,86.3,72.2,29.85,ENE,64,0.0,0.0,63,0.00,,OVC,0.01,WeatherDisplay:10.37,2013-09-21 15:15:00,
2013-09-21 11:20:00,86.1,72.0,29.85,ENE,68,0.0,0.0,63,0.00,,OVC,0.01,WeatherDisplay:10.37,2013-09-21 15:20:00,
2013-09-21 11:25:00,85.7,71.2,29.85,ENE,69,0.0,0.0,62,0.00,,OVC,0.01,WeatherDisplay:10.37,2013-09-21 15:25:00,
2013-09-21 11:30:00,85.1,72.0,29.85,East,98,0.0,0.0,65,0.00,,OVC,0.01,WeatherDisplay:10.37,2013-09-21 15:30:00,
2013-09-21 11:35:00,85.3,71.7,29.85,SE,140,0.0,0.0,64,0.00,,OVC,0.01,WeatherDisplay:10.37,2013-09-21 15:35:00,
2013-09-21 11:40:00,85.7,71.7,29.85,ENE,62,0.0,0.0,63,0.00,,OVC,0.01,WeatherDisplay:10.37,2013-09-21 15:40:00,
2013-09-21 11:45:00,86.1,72.5,29.85,SE,138,0.0,0.0,64,0.00,,OVC,0.01,WeatherDisplay:10.37,2013-09-21 15:45:00,
2013-09-21 11:50:00,86.3,72.7,29.85,East,92,0.0,0.0,64,0.00,,OVC,0.01,WeatherDisplay:10.37,2013-09-21 15:50:00,
2013-09-21 11:55:00,86.3,71.3,29.85,ENE,76,0.0,0.0,61,0.00,,OVC,0.01,WeatherDisplay:10.37,2013-09-21 15:55:00,
2013-09-21 12:00:00,86.7,71.6,29.85,East,81,0.0,0.0,61,0.00,,OVC,0.01,WeatherDisplay:10.37,2013-09-21 16:00:00,
2013-09-21 12:05:00,87.2,71.6,29.85,East,80,0.0,0.0,60,0.00,,OVC,0.01,WeatherDisplay:10.37,2013-09-21 16:05:00,
2013-09-21 12:10:00,86.7,71.6,29.85,ENE,72,0.0,0.0,61,0.00,,OVC,0.01,WeatherDisplay:10.37,2013-09-21 16:10:00,
2013-09-21 12:15:00,86.1,71.6,29.84,ENE,61,0.0,0.0,62,0.00,,OVC,0.01,WeatherDisplay:10.37,2013-09-21 16:15:00,
2013-09-21 12:20:00,85.7,71.2,29.84,ENE,76,0.0,0.0,62,0.00,,OVC,0.01,WeatherDisplay:10.37,2013-09-21 16:20:00,
2013-09-21 12:25:00,85.5,71.5,29.84,ENE,75,12.7,12.7,63,0.00,,OVC,0.01,WeatherDisplay:10.37,2013-09-21 16:25:00,
2013-09-21 12:30:00,85.5,71.9,29.84,SE,132,0.0,0.0,64,0.00,,OVC,0.01,WeatherDisplay:10.37,2013-09-21 16:30:00,
2013-09-21 12:35:00,85.5,71.5,29.84,ENE,63,11.5,11.5,63,0.00,,OVC,0.01,WeatherDisplay:10.37,2013-09-21 16:35:00,
2013-09-21 12:40:00,85.1,71.1,29.84,ENE,73,10.4,10.4,63,0.00,,OVC,0.01,WeatherDisplay:10.37,2013-09-21 16:40:00,
2013-09-21 12:45:00,84.7,71.6,29.83,East,92,0.0,0.0,65,0.00,,OVC,0.01,WeatherDisplay:10.37,2013-09-21 16:45:00,
2013-09-21 12:50:00,84.7,71.2,29.83,ENE,64,4.6,4.6,64,0.00,,OVC,0.01,WeatherDisplay:10.37,2013-09-21 16:50:00,
2013-09-21 12:55:00,84.5,71.0,29.83,ENE,78,13.8,13.8,64,0.00,,OVC,0.01,WeatherDisplay:10.37,2013-09-21 16:55:00,
2013-09-21 13:00:00,84.3,71.7,29.83,East,79,0.0,0.0,66,0.00,,OVC,0.01,WeatherDisplay:10.37,2013-09-21 17:00:00,
2013-09-21 13:05:00,84.3,71.2,29.83,ENE,69,0.0,0.0,65,0.00,,OVC,0.01,WeatherDisplay:10.37,2013-09-21 17:05:00,
2013-09-21 13:10:00,84.5,71.4,29.83,ESE,118,0.0,0.0,65,0.00,,OVC,0.01,WeatherDisplay:10.37,2013-09-21 17:10:00,
2013-09-21 13:15:00,84.7,71.6,29.82,ENE,69,11.0,11.0,65,0.00,,OVC,0.01,WeatherDisplay:10.37,2013-09-21 17:15:00,
2013-09-21 13:20:00,85.1,72.0,29.82,NE,53,0.0,0.0,65,0.00,,OVC,0.01,WeatherDisplay:10.37,2013-09-21 17:20:00,
2013-09-21 13:25:00,85.5,72.4,29.82,ENE,63,0.0,0.0,65,0.00,,OVC,0.01,WeatherDisplay:10.37,2013-09-21 17:25:00,
2013-09-21 13:30:00,86.5,71.9,29.82,ESE,117,0.0,0.0,62,0.00,,OVC,0.01,WeatherDisplay:10.37,2013-09-21 17:30:00,
2013-09-21 13:35:00,87.2,71.6,29.82,SSE,156,0.0,0.0,60,0.00,,OVC,0.01,WeatherDisplay:10.37,2013-09-21 17:35:00,
2013-09-21 13:40:00,87.2,72.6,29.82,ENE,66,0.0,0.0,62,0.00,,OVC,0.01,WeatherDisplay:10.37,2013-09-21 17:40:00,
2013-09-21 13:45:00,87.2,72.1,29.81,ENE,57,0.0,0.0,61,0.00,,OVC,0.01,WeatherDisplay:10.37,2013-09-21 17:45:00,
2013-09-21 13:50:00,87.6,72.0,29.81,ENE,57,0.0,0.0,60,0.00,,OVC,0.01,WeatherDisplay:10.37,2013-09-21 17:50:00,
2013-09-21 13:55:00,87.2,71.6,29.81,ENE,57,0.0,0.0,60,0.00,,OVC,0.01,WeatherDisplay:10.37,2013-09-21 17:55:00,
2013-09-21 14:01:00,86.3,71.3,29.80,ENE,57,0.0,0.0,61,0.00,,OVC,0.01,WeatherDisplay:10.37,2013-09-21 18:01:00,
2013-09-21 14:06:00,86.5,72.4,29.80,ESE,102,0.0,0.0,63,0.00,,OVC,0.01,WeatherDisplay:10.37,2013-09-21 18:06:00,
2013-09-21 14:11:00,87.4,72.3,29.80,East,86,0.0,0.0,61,0.00,,OVC,0.01,WeatherDisplay:10.37,2013-09-21 18:11:00,
2013-09-21 14:16:00,87.8,72.2,29.80,SSE,159,0.0,0.0,60,0.00,,OVC,0.01,WeatherDisplay:10.37,2013-09-21 18:16:00,
2013-09-21 14:21:00,88.4,73.2,29.80,SE,137,0.0,0.0,61,0.00,,OVC,0.01,WeatherDisplay:10.37,2013-09-21 18:21:00,
2013-09-21 14:26:00,88.6,71.9,29.80,ESE,106,0.0,0.0,58,0.00,,OVC,0.01,WeatherDisplay:10.37,2013-09-21 18:26:00,
2013-09-21 14:31:00,88.2,71.6,29.79,SE,137,11.5,11.5,58,0.00,,OVC,0.01,WeatherDisplay:10.37,2013-09-21 18:31:00,
2013-09-21 14:36:00,88.4,73.7,29.79,NE,40,17.0,17.0,62,0.00,,OVC,0.01,WeatherDisplay:10.37,2013-09-21 18:36:00,
2013-09-21 14:41:00,87.4,72.3,29.79,ENE,76,17.0,17.0,61,0.00,,OVC,0.01,WeatherDisplay:10.37,2013-09-21 18:41:00,
2013-09-21 14:46:00,87.2,72.1,29.79,ENE,63,0.0,0.0,61,0.00,,OVC,0.01,WeatherDisplay:10.37,2013-09-21 18:46:00,
2013-09-21 14:51:00,87.4,72.3,29.79,SSE,150,0.0,0.0,61,0.00,,OVC,0.01,WeatherDisplay:10.37,2013-09-21 18:51:00,
2013-09-21 14:56:00,87.6,72.0,29.79,SE,138,12.7,12.7,60,0.00,,OVC,0.01,WeatherDisplay:10.37,2013-09-21 18:56:00,
2013-09-21 15:01:00,86.7,71.6,29.79,SSE,155,18.0,18.0,61,0.00,,OVC,0.01,WeatherDisplay:10.37,2013-09-21 19:01:00,
2013-09-21 15:06:00,86.1,72.0,29.79,SE,132,0.0,0.0,63,0.00,,OVC,0.01,WeatherDisplay:10.37,2013-09-21 19:06:00,
2013-09-21 15:11:00,85.9,71.8,29.79,SSE,147,0.0,0.0,63,0.00,,OVC,0.01,WeatherDisplay:10.37,2013-09-21 19:11:00,
2013-09-21 15:17:00,85.9,71.4,29.78,East,86,0.0,0.0,62,0.00,,OVC,0.01,WeatherDisplay:10.37,2013-09-21 19:17:00,
2013-09-21 15:22:00,86.1,71.6,29.78,ENE,62,11.5,11.5,62,0.00,,OVC,0.01,WeatherDisplay:10.37,2013-09-21 19:22:00,
2013-09-21 15:27:00,86.3,71.7,29.78,ENE,62,6.9,0.0,62,0.00,,OVC,0.01,WeatherDisplay:10.37,2013-09-21 19:27:00,
2013-09-21 15:32:00,86.5,71.9,29.78,SE,144,2.3,2.3,62,0.00,,OVC,0.01,WeatherDisplay:10.37,2013-09-21 19:32:00,
2013-09-21 15:37:00,86.5,72.4,29.78,NE,56,8.1,8.1,63,0.00,,OVC,0.01,WeatherDisplay:10.37,2013-09-21 19:37:00,
2013-09-21 15:42:00,85.9,71.8,29.78,SE,137,15.0,15.0,63,0.00,,OVC,0.01,WeatherDisplay:10.37,2013-09-21 19:42:00,
2013-09-21 15:47:00,85.3,72.2,29.78,ENE,67,4.0,4.0,65,0.00,,OVC,0.01,WeatherDisplay:10.37,2013-09-21 19:47:00,
2013-09-21 15:52:00,84.9,71.4,29.78,SE,136,11.5,11.5,64,0.00,,OVC,0.01,WeatherDisplay:10.37,2013-09-21 19:52:00,
2013-09-21 15:57:00,84.7,71.6,29.78,SE,132,0.0,0.0,65,0.00,,OVC,0.01,WeatherDisplay:10.37,2013-09-21 19:57:00,
2013-09-21 16:02:00,84.9,71.8,29.77,ESE,115,6.9,6.9,65,0.00,,OVC,0.01,WeatherDisplay:10.37,2013-09-21 20:02:00,
2013-09-21 16:07:00,84.9,71.8,29.77,East,92,0.0,0.0,65,0.00,,OVC,0.01,WeatherDisplay:10.37,2013-09-21 20:07:00,
2013-09-21 16:12:00,84.7,72.1,29.77,SSE,147,5.8,5.8,66,0.00,,OVC,0.01,WeatherDisplay:10.37,2013-09-21 20:12:00,
2013-09-21 16:17:00,84.7,71.6,29.76,ENE,62,0.0,0.0,65,0.00,,OVC,0.01,WeatherDisplay:10.37,2013-09-21 20:17:00,
2013-09-21 16:22:00,84.5,71.9,29.76,ESE,121,0.0,0.0,66,0.00,,OVC,0.01,WeatherDisplay:10.37,2013-09-21 20:22:00,
2013-09-21 16:27:00,84.3,71.2,29.76,SE,133,0.0,0.0,65,0.00,,OVC,0.01,WeatherDisplay:10.37,2013-09-21 20:27:00,
2013-09-21 16:32:00,84.3,71.7,29.76,SE,124,1.2,0.0,66,0.00,,OVC,0.01,WeatherDisplay:10.37,2013-09-21 20:32:00,
2013-09-21 16:37:00,84.1,71.5,29.76,SE,125,2.3,2.3,66,0.00,,OVC,0.01,WeatherDisplay:10.37,2013-09-21 20:37:00,
2013-09-21 16:42:00,84.3,71.7,29.76,SE,134,0.0,0.0,66,0.00,,OVC,0.01,WeatherDisplay:10.37,2013-09-21 20:42:00,
2013-09-21 16:47:00,84.7,71.2,29.76,SE,133,15.0,15.0,64,0.00,,OVC,0.01,WeatherDisplay:10.37,2013-09-21 20:47:00,
2013-09-21 16:52:00,85.1,71.5,29.76,SSE,150,18.4,18.4,64,0.00,,OVC,0.01,WeatherDisplay:10.37,2013-09-21 20:52:00,
2013-09-21 16:57:00,85.3,71.3,29.76,SE,142,0.0,0.0,63,0.00,,OVC,0.01,WeatherDisplay:10.37,2013-09-21 20:57:00,
2013-09-21 17:02:00,85.3,71.3,29.76,SE,134,10.4,10.4,63,0.00,,OVC,0.01,WeatherDisplay:10.37,2013-09-21 21:02:00,
2013-09-21 17:07:00,85.5,71.9,29.76,SE,130,3.5,3.5,64,0.00,,OVC,0.01,WeatherDisplay:10.37,2013-09-21 21:07:00,
2013-09-21 17:12:00,85.5,71.9,29.76,ESE,121,8.1,8.1,64,0.00,,OVC,0.01,WeatherDisplay:10.37,2013-09-21 21:12:00,
2013-09-21 17:17:00,85.1,71.5,29.75,SE,134,19.6,19.6,64,0.00,,OVC,0.01,WeatherDisplay:10.37,2013-09-21 21:17:00,
2013-09-21 17:22:00,84.7,71.6,29.75,SSE,154,17.3,17.3,65,0.00,,OVC,0.01,WeatherDisplay:10.37,2013-09-21 21:22:00,
2013-09-21 17:27:00,84.5,71.9,29.75,ESE,116,0.0,0.0,66,0.00,,OVC,0.01,WeatherDisplay:10.37,2013-09-21 21:27:00,
2013-09-21 17:32:00,84.5,71.9,29.75,ESE,117,12.7,12.7,66,0.00,,OVC,0.01,WeatherDisplay:10.37,2013-09-21 21:32:00,
2013-09-21 17:37:00,84.5,71.9,29.75,SE,146,8.1,8.1,66,0.00,,OVC,0.01,WeatherDisplay:10.37,2013-09-21 21:37:00,
2013-09-21 17:42:00,84.3,71.7,29.75,SE,142,0.0,0.0,66,0.00,,OVC,0.01,WeatherDisplay:10.37,2013-09-21 21:42:00,
2013-09-21 17:47:00,84.1,72.0,29.75,NNE,26,8.1,8.1,67,0.00,,OVC,0.01,WeatherDisplay:10.37,2013-09-21 21:47:00,
2013-09-21 17:52:00,84.1,72.0,29.75,SSE,150,0.0,0.0,67,0.00,,OVC,0.01,WeatherDisplay:10.37,2013-09-21 21:52:00,
2013-09-21 17:57:00,84.0,72.3,29.75,SE,140,15.0,15.0,68,0.00,,OVC,0.01,WeatherDisplay:10.37,2013-09-21 21:57:00,
2013-09-21 18:02:00,84.0,71.9,29.75,East,80,6.0,6.0,67,0.00,,OVC,0.01,WeatherDisplay:10.37,2013-09-21 22:02:00,
2013-09-21 18:07:00,84.0,72.3,29.75,ESE,121,16.1,16.1,68,0.00,,OVC,0.01,WeatherDisplay:10.37,2013-09-21 22:07:00,
2013-09-21 18:12:00,83.8,72.1,29.75,East,92,3.0,3.0,68,0.00,,OVC,0.01,WeatherDisplay:10.37,2013-09-21 22:12:00,
2013-09-21 18:17:00,83.6,72.8,29.75,ESE,104,0.0,0.0,70,0.00,,OVC,0.01,WeatherDisplay:10.37,2013-09-21 22:17:00,
2013-09-21 18:22:00,83.4,72.6,29.75,East,100,3.5,0.0,70,0.00,,OVC,0.01,WeatherDisplay:10.37,2013-09-21 22:22:00,
2013-09-21 18:27:00,83.2,72.8,29.75,ESE,123,0.0,0.0,71,0.00,,OVC,0.01,WeatherDisplay:10.37,2013-09-21 22:27:00,
2013-09-21 18:32:00,83.0,72.6,29.75,ENE,67,0.0,0.0,71,0.00,,OVC,0.01,WeatherDisplay:10.37,2013-09-21 22:32:00,
2013-09-21 18:37:00,82.8,72.8,29.75,SE,127,0.0,0.0,72,0.00,,OVC,0.01,WeatherDisplay:10.37,2013-09-21 22:37:00,
2013-09-21 18:42:00,82.6,72.7,29.75,ESE,108,0.0,0.0,72,0.00,,OVC,0.01,WeatherDisplay:10.37,2013-09-21 22:42:00,
2013-09-21 18:47:00,82.4,72.9,29.75,SE,135,12.7,12.7,73,0.00,,OVC,0.01,WeatherDisplay:10.37,2013-09-21 22:47:00,
2013-09-21 18:52:00,82.0,72.5,29.75,SSE,149,0.0,2.9,73,0.00,,OVC,0.01,WeatherDisplay:10.37,2013-09-21 22:52:00,
2013-09-21 18:57:00,81.8,72.3,29.75,SE,140,9.2,9.2,73,0.00,,OVC,0.01,WeatherDisplay:10.37,2013-09-21 22:57:00,
2013-09-21 19:02:00,81.6,72.1,29.76,SE,142,0.0,0.0,73,0.00,,OVC,0.01,WeatherDisplay:10.37,2013-09-21 23:02:00,
2013-09-21 19:07:00,81.6,72.1,29.76,SE,131,0.0,0.0,73,0.00,,OVC,0.01,WeatherDisplay:10.37,2013-09-21 23:07:00,
2013-09-21 19:12:00,81.4,72.3,29.76,SE,132,0.0,0.0,74,0.00,,OVC,0.01,WeatherDisplay:10.37,2013-09-21 23:12:00,
2013-09-21 19:17:00,81.4,72.3,29.76,ESE,112,0.0,0.0,74,0.00,,OVC,0.01,WeatherDisplay:10.37,2013-09-21 23:17:00,
2013-09-21 19:22:00,81.4,72.3,29.76,SE,126,0.0,0.4,74,0.00,,OVC,0.01,WeatherDisplay:10.37,2013-09-21 23:22:00,
2013-09-21 19:27:00,81.2,72.5,29.76,SE,124,0.0,0.0,75,0.00,,OVC,0.01,WeatherDisplay:10.37,2013-09-21 23:27:00,
2013-09-21 19:32:00,81.2,72.1,29.76,ENE,60,2.3,2.3,74,0.00,,OVC,0.01,WeatherDisplay:10.37,2013-09-21 23:32:00,
2013-09-21 19:37:00,81.1,72.0,29.76,SE,132,2.3,0.0,74,0.00,,OVC,0.01,WeatherDisplay:10.37,2013-09-21 23:37:00,
2013-09-21 19:42:00,81.1,72.4,29.76,ENE,75,4.6,0.0,75,0.00,,OVC,0.01,WeatherDisplay:10.37,2013-09-21 23:42:00,
2013-09-21 19:47:00,80.9,72.2,29.76,SSE,153,1.0,0.0,75,0.00,,OVC,0.01,WeatherDisplay:10.37,2013-09-21 23:47:00,
2013-09-21 19:53:00,80.9,72.2,29.76,ESE,110,0.0,0.0,75,0.00,,OVC,0.01,WeatherDisplay:10.37,2013-09-21 23:53:00,
2013-09-21 19:58:00,80.7,72.0,29.76,ESE,110,0.0,0.0,75,0.00,,OVC,0.01,WeatherDisplay:10.37,2013-09-21 23:58:00,
2013-09-21 20:03:00,80.7,72.4,29.76,ESE,113,0.0,0.0,76,0.00,,OVC,0.01,WeatherDisplay:10.37,2013-09-22 00:03:00,
2013-09-21 20:08:00,80.5,72.2,29.76,SE,138,1.2,0.0,76,0.00,,OVC,0.01,WeatherDisplay:10.37,2013-09-22 00:08:00,
2013-09-21 20:13:00,80.3,72.0,29.76,SE,138,0.0,0.0,76,0.00,,OVC,0.01,WeatherDisplay:10.37,2013-09-22 00:13:00,
2013-09-21 20:18:00,80.3,72.0,29.77,SE,138,0.0,0.0,76,0.00,,OVC,0.01,WeatherDisplay:10.37,2013-09-22 00:18:00,
2013-09-21 20:23:00,80.3,72.0,29.77,SE,132,0.0,0.0,76,0.00,,OVC,0.01,WeatherDisplay:10.37,2013-09-22 00:23:00,
2013-09-21 20:28:00,80.1,72.2,29.77,SE,136,0.0,0.0,77,0.00,,OVC,0.01,WeatherDisplay:10.37,2013-09-22 00:28:00,
2013-09-21 20:33:00,80.1,72.2,29.78,SE,136,0.0,0.0,77,0.00,,OVC,0.01,WeatherDisplay:10.37,2013-09-22 00:33:00,
2013-09-21 20:38:00,80.1,72.2,29.78,SE,132,0.0,0.0,77,0.00,,OVC,0.01,WeatherDisplay:10.37,2013-09-22 00:38:00,
2013-09-21 20:43:00,79.9,72.0,29.78,SE,132,0.0,0.0,77,0.00,,OVC,0.01,WeatherDisplay:10.37,2013-09-22 00:43:00,
2013-09-21 20:48:00,79.9,72.0,29.78,SE,133,0.0,0.0,77,0.00,,OVC,0.01,WeatherDisplay:10.37,2013-09-22 00:48:00,
2013-09-21 20:53:00,79.9,72.0,29.78,ESE,111,0.0,0.3,77,0.00,,OVC,0.01,WeatherDisplay:10.37,2013-09-22 00:53:00,
2013-09-21 20:58:00,79.9,72.0,29.78,ESE,119,0.0,0.0,77,0.00,,OVC,0.01,WeatherDisplay:10.37,2013-09-22 00:58:00,
2013-09-21 21:03:00,79.9,72.4,29.78,ESE,119,0.0,0.0,78,0.00,,OVC,0.01,WeatherDisplay:10.37,2013-09-22 01:03:00,
2013-09-21 21:08:00,79.9,72.4,29.78,ESE,119,0.0,0.0,78,0.00,,OVC,0.01,WeatherDisplay:10.37,2013-09-22 01:08:00,
2013-09-21 21:13:00,79.8,72.3,29.78,ESE,119,0.0,0.0,78,0.00,,OVC,0.01,WeatherDisplay:10.37,2013-09-22 01:13:00,
2013-09-21 21:18:00,79.8,72.3,29.79,ESE,119,0.0,0.0,78,0.00,,OVC,0.01,WeatherDisplay:10.37,2013-09-22 01:18:00,
2013-09-21 21:23:00,79.8,72.3,29.79,ESE,119,0.0,0.0,78,0.00,,OVC,0.01,WeatherDisplay:10.37,2013-09-22 01:23:00,
2013-09-21 21:28:00,79.8,72.3,29.79,ESE,119,0.0,0.0,78,0.00,,OVC,0.01,WeatherDisplay:10.37,2013-09-22 01:28:00,
2013-09-21 21:33:00,79.8,72.3,29.79,ESE,119,0.0,0.0,78,0.00,,OVC,0.01,WeatherDisplay:10.37,2013-09-22 01:33:00,
2013-09-21 21:38:00,79.8,72.3,29.79,ESE,122,0.0,0.0,78,0.00,,OVC,0.01,WeatherDisplay:10.37,2013-09-22 01:38:00,
2013-09-21 21:43:00,79.8,72.3,29.79,SE,128,1.2,0.0,78,0.00,,OVC,0.01,WeatherDisplay:10.37,2013-09-22 01:43:00,
2013-09-21 21:48:00,79.8,72.3,29.80,SE,128,0.0,0.0,78,0.00,,OVC,0.01,WeatherDisplay:10.37,2013-09-22 01:48:00,
2013-09-21 21:53:00,79.8,72.3,29.80,SE,128,0.0,0.0,78,0.00,,OVC,0.01,WeatherDisplay:10.37,2013-09-22 01:53:00,
2013-09-21 21:58:00,79.8,72.3,29.80,SE,128,0.0,0.0,78,0.00,,OVC,0.01,WeatherDisplay:10.37,2013-09-22 01:58:00,
2013-09-21 22:03:00,79.6,72.1,29.80,SE,128,0.0,0.0,78,0.00,,OVC,0.01,WeatherDisplay:10.37,2013-09-22 02:03:00,
2013-09-21 22:08:00,79.6,72.5,29.80,SE,128,0.0,0.0,79,0.00,,OVC,0.01,WeatherDisplay:10.37,2013-09-22 02:08:00,
2013-09-21 22:13:00,79.6,72.5,29.80,SE,128,0.0,0.0,79,0.00,,OVC,0.01,WeatherDisplay:10.37,2013-09-22 02:13:00,
2013-09-21 22:18:00,79.6,72.5,29.80,SE,128,0.0,0.0,79,0.00,,OVC,0.01,WeatherDisplay:10.37,2013-09-22 02:18:00,
2013-09-21 22:23:00,79.8,72.7,29.80,SE,138,3.5,3.5,79,0.00,,OVC,0.01,WeatherDisplay:10.37,2013-09-22 02:23:00,
2013-09-21 22:28:00,79.8,72.7,29.80,SSE,148,5.8,5.8,79,0.00,,OVC,0.01,WeatherDisplay:10.37,2013-09-22 02:28:00,
2013-09-21 22:33:00,79.9,72.4,29.80,SE,134,5.8,5.8,78,0.00,,OVC,0.01,WeatherDisplay:10.37,2013-09-22 02:33:00,
2013-09-21 22:38:00,79.9,72.4,29.80,SE,134,3.5,3.5,78,0.00,,OVC,0.01,WeatherDisplay:10.37,2013-09-22 02:38:00,
2013-09-21 22:43:00,80.1,72.6,29.80,SE,133,8.1,8.1,78,0.00,,OVC,0.01,WeatherDisplay:10.37,2013-09-22 02:43:00,
2013-09-21 22:48:00,80.1,72.2,29.80,SE,144,5.8,5.8,77,0.00,,OVC,0.01,WeatherDisplay:10.37,2013-09-22 02:48:00,
2013-09-21 22:53:00,80.3,72.4,29.80,SE,144,5.8,5.8,77,0.00,,OVC,0.01,WeatherDisplay:10.37,2013-09-22 02:53:00,
2013-09-21 22:58:00,80.3,72.4,29.80,SE,144,0.0,0.0,77,0.00,,OVC,0.01,WeatherDisplay:10.37,2013-09-22 02:58:00,
2013-09-21 23:03:00,80.3,72.4,29.81,SE,140,0.0,0.0,77,0.00,,OVC,0.01,WeatherDisplay:10.37,2013-09-22 03:03:00,
2013-09-21 23:08:00,80.5,72.6,29.81,SE,142,0.0,0.0,77,0.00,,OVC,0.01,WeatherDisplay:10.37,2013-09-22 03:08:00,
2013-09-21 23:13:00,80.5,72.6,29.81,SE,143,0.0,0.0,77,0.00,,OVC,0.01,WeatherDisplay:10.37,2013-09-22 03:13:00,
2013-09-21 23:18:00,80.3,72.4,29.81,SW,219,13.8,13.8,77,0.00,,OVC,0.01,WeatherDisplay:10.37,2013-09-22 03:18:00,
2013-09-21 23:23:00,79.6,72.1,29.81,West,267,10.0,10.0,78,0.00,,OVC,0.01,WeatherDisplay:10.37,2013-09-22 03:23:00,
2013-09-21 23:28:00,78.6,71.9,29.81,West,260,15.0,15.0,80,0.00,,OVC,0.01,WeatherDisplay:10.37,2013-09-22 03:28:00,
2013-09-21 23:33:00,78.1,72.2,29.81,WSW,253,9.2,9.2,82,0.00,,OVC,0.01,WeatherDisplay:10.37,2013-09-22 03:33:00,
2013-09-21 23:38:00,77.7,72.1,29.81,WSW,251,0.0,0.0,83,0.00,,OVC,0.01,WeatherDisplay:10.37,2013-09-22 03:38:00,
2013-09-21 23:43:00,77.4,71.8,29.81,WSW,246,0.0,0.0,83,0.00,,OVC,0.01,WeatherDisplay:10.37,2013-09-22 03:43:00,
2013-09-21 23:49:00,77.4,72.2,29.80,WSW,245,8.1,8.1,84,0.00,,OVC,0.01,WeatherDisplay:10.37,2013-09-22 03:49:00,
2013-09-21 23:54:00,77.2,72.3,29.80,WSW,246,0.0,0.0,85,0.00,,OVC,0.01,WeatherDisplay:10.37,2013-09-22 03:54:00,
2013-09-21 23:59:00,77.2,72.7,29.80,WSW,250,0.0,0.0,86,0.00,,OVC,0.01,WeatherDisplay:10.37,2013-09-22 03:59:00,